Time;durP1;ratioP1;P1;durP2;ratioP2;P2;SDS_P1;SDS_P2;PMS_P1;PMS_P2;Temp;Humidity;BMP_temperature;BMP_pressure;BME280_temperature;BME280_humidity;BME280_pressure;Samples;Min_cycle;Max_cycle;Signal;HPM_P1;HPM_P2
2021/12/04 00:00:25;;;;;;;9.73;6.80;;;-0.10;99.90;;;;;;5033946;28;20519;-47
2021/12/04 00:02:52;;;;;;;7.73;6.20;;;-0.10;99.90;;;;;;5033893;28;20542;-43
2021/12/04 00:05:20;;;;;;;8.33;6.57;;;-0.10;99.90;;;;;;5032969;28;20179;-43
2021/12/04 00:07:45;;;;;;;8.60;6.43;;;-0.10;99.90;;;;;;5033569;28;20464;-51
2021/12/04 00:10:17;;;;;;;8.73;6.20;;;-0.10;99.90;;;;;;5034006;28;20418;-46
2021/12/04 00:12:43;;;;;;;8.57;6.77;;;0.00;99.90;;;;;;5033172;28;20258;-41
2021/12/04 00:15:09;;;;;;;8.57;6.87;;;0.00;99.90;;;;;;5033632;28;20419;-46
2021/12/04 00:17:35;;;;;;;8.67;6.90;;;0.00;99.90;;;;;;5033877;28;20792;-45
2021/12/04 00:20:01;;;;;;;7.93;7.00;;;0.00;99.90;;;;;;5034152;28;20195;-46
2021/12/04 00:22:27;;;;;;;7.60;6.80;;;0.00;99.90;;;;;;5024776;28;20414;-42
2021/12/04 00:24:52;;;;;;;10.30;9.13;;;0.10;99.90;;;;;;5031934;28;20967;-44
2021/12/04 00:27:18;;;;;;;10.20;8.37;;;0.10;99.90;;;;;;5033327;28;20582;-46
2021/12/04 00:29:43;;;;;;;15.57;12.57;;;0.10;99.90;;;;;;5033560;28;20322;-43
2021/12/04 00:32:13;;;;;;;12.97;9.70;;;0.10;99.90;;;;;;5033346;28;20183;-51
2021/12/04 00:34:43;;;;;;;10.53;8.07;;;0.10;99.90;;;;;;5032354;28;20202;-54
2021/12/04 00:37:30;;;;;;;8.97;7.53;;;0.20;99.90;;;;;;5032408;28;20418;-49
2021/12/04 00:50:51;;;;;;;11.53;8.90;;;0.20;99.90;;;;;;5033453;28;20765;-53
2021/12/04 00:53:17;;;;;;;7.93;6.50;;;0.20;99.90;;;;;;5032816;28;20434;-49
2021/12/04 00:55:43;;;;;;;8.00;6.60;;;0.20;99.90;;;;;;5033240;28;20577;-46
2021/12/04 00:58:08;;;;;;;8.60;7.20;;;0.20;99.90;;;;;;5032172;28;20176;-48
2021/12/04 01:00:34;;;;;;;8.13;6.63;;;0.20;99.90;;;;;;5033250;28;20258;-47
2021/12/04 01:02:59;;;;;;;8.43;7.00;;;0.20;99.90;;;;;;5033115;28;20282;-45
2021/12/04 01:05:25;;;;;;;7.80;6.43;;;0.20;99.90;;;;;;5032811;28;20192;-50
2021/12/04 01:07:51;;;;;;;8.40;7.20;;;0.20;99.90;;;;;;5033321;28;20187;-52
2021/12/04 01:10:16;;;;;;;9.07;7.53;;;0.20;99.90;;;;;;5033050;28;20171;-45
2021/12/04 01:12:43;;;;;;;8.50;7.47;;;0.30;99.90;;;;;;5033155;28;20180;-47
2021/12/04 01:15:09;;;;;;;8.47;7.03;;;0.30;99.90;;;;;;5032858;28;20168;-46
2021/12/04 01:17:35;;;;;;;8.63;6.60;;;0.30;99.90;;;;;;5033130;28;20406;-46
2021/12/04 01:20:00;;;;;;;8.63;6.80;;;0.20;99.90;;;;;;5033081;28;20762;-46
2021/12/04 01:22:26;;;;;;;10.73;7.60;;;0.30;99.90;;;;;;5032848;28;20701;-50
2021/12/04 01:24:53;;;;;;;8.10;6.07;;;0.30;99.90;;;;;;5032520;28;20184;-48
2021/12/04 01:27:19;;;;;;;7.37;6.07;;;0.30;99.90;;;;;;5032715;28;20901;-48
2021/12/04 01:29:44;;;;;;;10.50;7.50;;;0.30;99.90;;;;;;5026767;28;20470;-48
2021/12/04 01:32:10;;;;;;;9.37;7.53;;;0.30;99.90;;;;;;5014659;28;20921;-48
2021/12/04 01:34:37;;;;;;;8.17;6.60;;;0.30;99.90;;;;;;5032535;28;20196;-49
2021/12/04 01:37:04;;;;;;;8.80;6.90;;;0.30;99.90;;;;;;5032531;28;20920;-51
2021/12/04 01:39:30;;;;;;;8.13;6.97;;;0.30;99.90;;;;;;5033013;28;20414;-49
2021/12/04 01:41:56;;;;;;;8.53;6.83;;;0.30;99.90;;;;;;5032556;28;20484;-48
2021/12/04 01:44:22;;;;;;;9.70;7.70;;;0.40;99.90;;;;;;5032483;28;20570;-49
2021/12/04 01:46:49;;;;;;;7.80;6.57;;;0.40;99.90;;;;;;5032317;28;20569;-49
2021/12/04 01:49:14;;;;;;;8.53;6.73;;;0.40;99.90;;;;;;5032855;28;20210;-45
2021/12/04 01:51:40;;;;;;;8.47;6.23;;;0.40;99.90;;;;;;5032394;28;20414;-47
2021/12/04 01:54:05;;;;;;;7.13;5.60;;;0.40;99.90;;;;;;5032304;28;20618;-43
2021/12/04 01:56:33;;;;;;;8.13;6.07;;;0.40;99.90;;;;;;5032157;28;20266;-46
2021/12/04 01:59:00;;;;;;;7.33;5.50;;;0.40;99.90;;;;;;5032141;28;20164;-44
2021/12/04 02:01:26;;;;;;;7.43;6.10;;;0.40;99.90;;;;;;5032427;28;20505;-43
2021/12/04 02:03:51;;;;;;;6.93;5.57;;;0.40;99.90;;;;;;5031995;28;20537;-43
2021/12/04 02:06:17;;;;;;;6.80;5.00;;;0.40;99.90;;;;;;5031026;28;20183;-49
2021/12/04 02:08:43;;;;;;;6.60;5.07;;;0.40;99.90;;;;;;5032070;28;20218;-46
2021/12/04 02:11:09;;;;;;;6.47;4.97;;;0.40;99.90;;;;;;5032063;28;20164;-44
2021/12/04 02:13:34;;;;;;;6.87;5.60;;;0.40;99.90;;;;;;5031893;28;20433;-44
2021/12/04 02:16:03;;;;;;;6.43;5.43;;;0.40;99.90;;;;;;5031831;28;20554;-43
2021/12/04 02:18:29;;;;;;;6.47;5.57;;;0.40;99.90;;;;;;5032466;28;20172;-48
2021/12/04 02:20:55;;;;;;;7.77;5.83;;;0.40;99.90;;;;;;5031827;28;20414;-43
2021/12/04 02:23:20;;;;;;;6.83;5.37;;;0.40;99.90;;;;;;5031666;28;20468;-43
2021/12/04 02:25:46;;;;;;;8.30;6.40;;;0.50;99.90;;;;;;5031820;28;20618;-46
2021/12/04 02:28:13;;;;;;;7.00;6.13;;;0.50;99.90;;;;;;5032013;28;20662;-47
2021/12/04 02:30:43;;;;;;;6.97;5.83;;;0.50;99.90;;;;;;5031708;28;20174;-43
2021/12/04 02:33:12;;;;;;;8.70;6.30;;;0.50;99.90;;;;;;5031788;28;20453;-46
2021/12/04 02:35:45;;;;;;;7.83;6.07;;;0.50;99.90;;;;;;5031493;28;20418;-45
2021/12/04 02:38:10;;;;;;;7.37;6.23;;;0.50;99.90;;;;;;5031810;28;21006;-43
2021/12/04 02:40:36;;;;;;;8.07;6.57;;;0.50;99.90;;;;;;5031715;28;20415;-43
2021/12/04 02:43:02;;;;;;;7.90;6.70;;;0.50;99.90;;;;;;5031661;28;20206;-43
2021/12/04 02:45:28;;;;;;;8.13;6.43;;;0.50;99.90;;;;;;5030574;28;20258;-44
2021/12/04 02:47:53;;;;;;;8.63;6.80;;;0.50;99.90;;;;;;5031102;28;20445;-49
2021/12/04 02:50:19;;;;;;;6.77;5.80;;;0.50;99.90;;;;;;5031702;28;20164;-43
2021/12/04 02:52:44;;;;;;;7.83;5.93;;;0.50;99.90;;;;;;5013721;28;20179;-45
2021/12/04 02:55:10;;;;;;;7.37;6.23;;;0.50;99.90;;;;;;5031230;28;20176;-46
2021/12/04 02:57:43;;;;;;;9.07;6.87;;;0.60;99.90;;;;;;5031516;28;20176;-43
2021/12/04 03:00:09;;;;;;;7.70;6.80;;;0.60;99.90;;;;;;5031569;28;20164;-51
2021/12/04 03:02:35;;;;;;;6.27;5.57;;;0.60;99.90;;;;;;5031141;28;20472;-47
2021/12/04 03:05:06;;;;;;;7.57;6.37;;;0.60;99.90;;;;;;5030951;28;20832;-47
2021/12/04 03:07:32;;;;;;;7.63;5.90;;;0.60;99.90;;;;;;5031508;28;20163;-43
2021/12/04 03:09:57;;;;;;;7.10;6.13;;;0.70;99.90;;;;;;5031468;28;20411;-45
2021/12/04 03:12:24;;;;;;;7.37;5.67;;;0.70;99.90;;;;;;5031290;28;20178;-46
2021/12/04 03:14:51;;;;;;;6.30;5.40;;;0.70;99.90;;;;;;5031052;28;20654;-44
2021/12/04 03:17:19;;;;;;;6.83;5.50;;;0.70;99.90;;;;;;5033490;28;20410;-45
2021/12/04 03:19:45;;;;;;;8.23;6.13;;;0.80;99.90;;;;;;5035057;28;20410;-44
2021/12/04 03:22:12;;;;;;;7.10;5.87;;;0.80;99.90;;;;;;5035112;28;20410;-47
2021/12/04 03:24:41;;;;;;;7.27;5.97;;;0.80;99.90;;;;;;5034730;28;20469;-49
2021/12/04 03:27:06;;;;;;;7.07;5.57;;;0.80;99.90;;;;;;5035283;28;20972;-49
2021/12/04 03:29:35;;;;;;;5.97;5.23;;;0.80;99.90;;;;;;5034992;28;20430;-43
2021/12/04 03:32:16;;;;;;;6.53;5.40;;;0.80;99.90;;;;;;5035127;28;20172;-49
2021/12/04 03:42:55;;;;;;;5.97;5.30;;;0.90;99.90;;;;;;5035121;28;20544;-42
2021/12/04 03:45:22;;;;;;;6.60;5.77;;;0.90;99.90;;;;;;5034315;28;20465;-51
2021/12/04 03:47:50;;;;;;;6.40;5.60;;;0.90;99.90;;;;;;5034288;28;20476;-49
2021/12/04 03:50:16;;;;;;;6.27;5.43;;;0.90;99.90;;;;;;5034548;28;20452;-47
2021/12/04 03:52:42;;;;;;;6.40;4.93;;;0.90;99.90;;;;;;5034747;28;20824;-48
2021/12/04 03:55:09;;;;;;;6.37;4.73;;;0.90;99.90;;;;;;5034322;28;20172;-47
2021/12/04 03:57:35;;;;;;;5.23;4.67;;;0.90;99.90;;;;;;5034717;28;20411;-46
2021/12/04 04:00:03;;;;;;;6.20;4.90;;;0.90;99.90;;;;;;5034353;28;20402;-49
2021/12/04 04:02:28;;;;;;;7.63;5.27;;;1.10;99.90;;;;;;5034583;28;20492;-47
2021/12/04 04:04:55;;;;;;;6.47;5.13;;;1.00;99.90;;;;;;5034050;28;20939;-43
2021/12/04 04:07:21;;;;;;;6.43;5.30;;;1.00;99.90;;;;;;5034415;28;20258;-47
2021/12/04 04:09:47;;;;;;;6.93;5.40;;;1.00;99.90;;;;;;5034291;28;20402;-53
2021/12/04 04:12:13;;;;;;;6.47;5.40;;;1.00;99.90;;;;;;5034330;28;20409;-42
2021/12/04 04:14:38;;;;;;;6.60;5.47;;;1.00;99.90;;;;;;5034083;28;20196;-43
2021/12/04 04:17:05;;;;;;;6.47;5.77;;;1.10;99.90;;;;;;5016525;28;20182;-50
2021/12/04 04:19:31;;;;;;;6.20;5.60;;;1.00;99.90;;;;;;5034080;28;20175;-47
2021/12/04 04:21:58;;;;;;;7.57;5.40;;;1.10;99.90;;;;;;5034131;28;20410;-43
2021/12/04 04:24:25;;;;;;;7.43;5.90;;;1.10;99.90;;;;;;5034018;28;21034;-44
2021/12/04 04:26:52;;;;;;;6.57;5.83;;;1.10;99.90;;;;;;5033910;28;20429;-46
2021/12/04 04:29:17;;;;;;;7.63;5.90;;;1.10;99.90;;;;;;5032935;28;20414;-44
2021/12/04 04:31:47;;;;;;;7.87;6.07;;;1.10;99.90;;;;;;5033940;28;20448;-45
2021/12/04 04:34:30;;;;;;;6.63;5.67;;;1.10;99.90;;;;;;5033967;28;20192;-49
2021/12/04 05:12:27;;;;;;;5.77;4.87;;;1.30;99.90;;;;;;5013845;28;20462;-51
2021/12/04 05:14:57;;;;;;;6.60;5.07;;;1.30;99.90;;;;;;5000649;28;20443;-47
2021/12/04 05:20:10;;;;;;;6.33;4.93;;;1.30;99.90;;;;;;4993559;28;20492;-46
2021/12/04 05:22:36;;;;;;;5.43;4.83;;;1.40;99.90;;;;;;4993682;28;20416;-48
2021/12/04 05:25:02;;;;;;;6.17;4.87;;;1.30;99.90;;;;;;4993073;28;20437;-44
2021/12/04 05:27:27;;;;;;;6.00;5.07;;;1.30;99.90;;;;;;4993771;28;20181;-48
2021/12/04 05:29:53;;;;;;;6.43;5.03;;;1.40;99.90;;;;;;4993486;28;20220;-46
2021/12/04 05:32:18;;;;;;;5.07;4.53;;;1.40;99.90;;;;;;4993517;28;20173;-51
2021/12/04 05:34:44;;;;;;;6.13;4.93;;;1.30;99.90;;;;;;4993063;28;20626;-48
2021/12/04 05:37:10;;;;;;;6.27;4.90;;;1.40;99.90;;;;;;4993241;28;20169;-50
2021/12/04 05:39:35;;;;;;;7.17;5.47;;;1.40;99.90;;;;;;4993198;28;20205;-46
2021/12/04 05:42:01;;;;;;;7.03;5.53;;;1.40;99.90;;;;;;4993239;28;20181;-51
2021/12/04 05:44:29;;;;;;;5.57;4.63;;;1.40;99.90;;;;;;4993068;28;20205;-46
2021/12/04 05:47:00;;;;;;;6.00;5.33;;;1.40;99.90;;;;;;4992850;28;20165;-48
2021/12/04 05:49:48;;;;;;;6.53;5.53;;;1.40;99.90;;;;;;4993088;28;20405;-45
2021/12/04 05:55:18;;;;;;;8.47;5.87;;;1.40;99.90;;;;;;4992846;28;20436;-50
2021/12/04 05:57:45;;;;;;;7.50;5.90;;;1.30;99.90;;;;;;4992954;28;20420;-47
2021/12/04 06:00:15;;;;;;;9.63;6.77;;;1.30;99.90;;;;;;4992931;28;20779;-52
2021/12/04 06:02:41;;;;;;;7.40;6.33;;;1.30;99.90;;;;;;4992948;28;20459;-50
2021/12/04 06:05:07;;;;;;;7.90;6.87;;;1.30;99.90;;;;;;4992247;28;20456;-47
2021/12/04 06:07:32;;;;;;;7.50;6.67;;;1.30;99.90;;;;;;4992717;28;20211;-48
2021/12/04 06:09:58;;;;;;;7.73;6.37;;;1.30;99.90;;;;;;4992874;28;20172;-45
2021/12/04 06:12:24;;;;;;;6.27;5.10;;;1.20;99.90;;;;;;4992903;28;20650;-48
2021/12/04 06:14:49;;;;;;;6.83;5.70;;;1.20;99.90;;;;;;4991962;28;20201;-47
2021/12/04 06:17:18;;;;;;;6.23;5.63;;;1.20;99.90;;;;;;4989482;28;20181;-48
2021/12/04 06:22:40;;;;;;;9.17;6.97;;;1.20;99.90;;;;;;4989804;28;20423;-47
2021/12/04 06:25:06;;;;;;;7.87;6.80;;;1.20;99.90;;;;;;4992014;28;20440;-47
2021/12/04 06:27:31;;;;;;;7.33;6.50;;;1.20;99.90;;;;;;4991969;28;20463;-52
2021/12/04 06:29:57;;;;;;;7.63;5.70;;;1.20;99.90;;;;;;4991721;28;20796;-45
2021/12/04 06:32:23;;;;;;;7.53;6.20;;;1.20;99.90;;;;;;4992367;28;20252;-46
2021/12/04 06:34:48;;;;;;;8.27;6.20;;;1.20;99.90;;;;;;4991057;28;20343;-45
2021/12/04 06:37:15;;;;;;;7.50;6.10;;;1.20;99.90;;;;;;4974540;28;20636;-45
2021/12/04 06:39:40;;;;;;;9.27;6.80;;;1.20;99.90;;;;;;4991518;28;20188;-46
2021/12/04 06:42:06;;;;;;;6.97;6.07;;;1.20;99.90;;;;;;4992126;28;20416;-45
2021/12/04 06:44:32;;;;;;;7.17;6.20;;;1.20;99.90;;;;;;4991615;28;20279;-43
2021/12/04 06:46:57;;;;;;;7.80;6.00;;;1.20;99.90;;;;;;4990785;28;20423;-47
2021/12/04 06:49:28;;;;;;;6.33;5.40;;;1.20;99.90;;;;;;4991640;28;20224;-45
2021/12/04 06:51:57;;;;;;;8.33;5.60;;;1.20;99.90;;;;;;4975879;28;20193;-51
2021/12/04 06:54:26;;;;;;;6.83;5.80;;;1.20;99.90;;;;;;4979025;28;20507;-45
2021/12/04 06:56:51;;;;;;;6.20;5.47;;;1.20;99.90;;;;;;4993602;28;20795;-45
2021/12/04 06:59:30;;;;;;;6.83;5.23;;;1.20;99.90;;;;;;5017442;28;20499;-46
2021/12/04 07:01:55;;;;;;;5.90;5.30;;;1.20;99.90;;;;;;5007275;28;20516;-45
2021/12/04 07:04:21;;;;;;;6.93;5.40;;;1.20;99.90;;;;;;5017882;28;20467;-43
2021/12/04 07:06:48;;;;;;;6.50;5.20;;;1.20;99.90;;;;;;5017809;28;20251;-49
2021/12/04 07:09:14;;;;;;;5.60;5.00;;;1.20;99.90;;;;;;5018111;28;20936;-45
2021/12/04 07:11:40;;;;;;;6.00;5.40;;;1.30;99.90;;;;;;5018118;28;20403;-45
2021/12/04 07:14:06;;;;;;;6.03;5.20;;;1.30;99.90;;;;;;5010557;28;20197;-46
2021/12/04 07:16:32;;;;;;;5.67;5.00;;;1.20;99.90;;;;;;4998216;28;20176;-49
2021/12/04 07:18:58;;;;;;;8.10;7.30;;;1.30;99.90;;;;;;4998270;28;20232;-40
2021/12/04 07:21:24;;;;;;;7.87;6.40;;;1.20;99.90;;;;;;4998374;28;20424;-39
2021/12/04 07:23:50;;;;;;;9.80;7.30;;;1.00;99.90;;;;;;4998139;28;20208;-37
2021/12/04 07:26:17;;;;;;;8.20;7.23;;;0.90;99.90;;;;;;4993916;28;20416;-46
2021/12/04 07:28:42;;;;;;;9.40;6.97;;;0.60;99.90;;;;;;4997521;28;20173;-47
2021/12/04 07:31:08;;;;;;;7.80;6.70;;;0.40;99.90;;;;;;4998022;28;20841;-46
2021/12/04 07:33:34;;;;;;;9.93;7.77;;;0.30;99.90;;;;;;4998191;28;20256;-48
2021/12/04 07:36:00;;;;;;;8.90;7.13;;;0.50;99.90;;;;;;4997685;28;20259;-46
2021/12/04 07:38:27;;;;;;;9.23;7.63;;;0.50;99.90;;;;;;4998296;28;20652;-47
2021/12/04 07:40:52;;;;;;;10.23;3.00;;;0.50;99.90;;;;;;4998196;28;20260;-46
2021/12/04 07:43:18;;;;;;;9.73;7.67;;;0.60;99.90;;;;;;4997932;28;20591;-47
2021/12/04 07:45:44;;;;;;;7.17;4.17;;;0.80;99.90;;;;;;4997779;28;20189;-47
2021/12/04 07:48:09;;;;;;;10.10;8.00;;;1.40;99.90;;;;;;4997619;28;20735;-46
2021/12/04 07:50:35;;;;;;;13.10;10.93;;;2.00;99.90;;;;;;4994160;28;20183;-46
2021/12/04 07:53:02;;;;;;;11.00;8.83;;;2.20;99.90;;;;;;4986374;28;20177;-47
2021/12/04 07:55:28;;;;;;;9.73;7.70;;;1.90;99.90;;;;;;4992388;28;20751;-46
2021/12/04 07:57:54;;;;;;;7.37;5.03;;;2.10;99.90;;;;;;4997656;28;20247;-46
2021/12/04 08:00:21;;;;;;;9.60;7.37;;;2.00;99.90;;;;;;4990953;28;20272;-46
2021/12/04 08:02:48;;;;;;;9.70;7.20;;;2.00;99.90;;;;;;4996016;28;20180;-47
2021/12/04 08:05:15;;;;;;;8.80;6.43;;;1.80;99.90;;;;;;4994334;28;20207;-47
2021/12/04 08:07:42;;;;;;;8.13;6.77;;;1.60;99.90;;;;;;4994024;28;20907;-48
2021/12/04 08:10:11;;;;;;;9.13;6.40;;;1.60;99.90;;;;;;4991119;28;20173;-47
2021/12/04 08:12:37;;;;;;;12.20;8.43;;;1.50;99.90;;;;;;4994790;28;20416;-47
2021/12/04 08:15:07;;;;;;;8.27;6.70;;;1.70;99.90;;;;;;4994585;28;20535;-47
2021/12/04 08:17:33;;;;;;;8.07;5.97;;;1.50;99.90;;;;;;4994968;28;20648;-41
2021/12/04 08:19:59;;;;;;;6.20;5.10;;;1.50;99.90;;;;;;4994937;28;20462;-43
2021/12/04 08:22:25;;;;;;;7.13;5.27;;;1.60;99.90;;;;;;4994992;28;20177;-42
2021/12/04 08:24:50;;;;;;;6.47;5.33;;;1.60;99.90;;;;;;4994430;28;20256;-44
2021/12/04 08:27:19;;;;;;;5.77;5.03;;;1.70;99.90;;;;;;4991766;28;20177;-45
2021/12/04 08:29:45;;;;;;;7.93;6.07;;;1.80;99.90;;;;;;4994489;28;20540;-44
2021/12/04 08:32:11;;;;;;;7.33;6.13;;;1.90;99.90;;;;;;4994872;28;20764;-44
2021/12/04 08:34:37;;;;;;;7.43;6.07;;;1.90;99.90;;;;;;4994555;28;20352;-44
2021/12/04 08:37:04;;;;;;;6.93;5.73;;;2.00;99.90;;;;;;4994908;28;20173;-43
2021/12/04 08:39:30;;;;;;;6.57;5.57;;;2.00;99.90;;;;;;4994704;28;20177;-40
2021/12/04 08:41:56;;;;;;;5.70;5.10;;;2.10;99.90;;;;;;4994772;28;20404;-41
2021/12/04 08:44:22;;;;;;;6.57;5.57;;;2.20;99.90;;;;;;4994604;28;20283;-42
2021/12/04 08:46:48;;;;;;;7.30;5.87;;;2.20;99.90;;;;;;4994043;28;20656;-41
2021/12/04 08:49:15;;;;;;;6.10;5.20;;;2.30;99.90;;;;;;4994890;28;20169;-42
2021/12/04 08:51:42;;;;;;;5.53;4.83;;;2.30;99.90;;;;;;4994583;28;20173;-38
2021/12/04 08:54:08;;;;;;;14.20;12.03;;;2.40;99.90;;;;;;4994507;28;20193;-37
2021/12/04 08:56:34;;;;;;;6.17;5.13;;;2.40;99.90;;;;;;4994060;28;20225;-43
2021/12/04 08:59:00;;;;;;;5.93;4.97;;;2.50;99.90;;;;;;4994295;28;20192;-43
2021/12/04 09:01:31;;;;;;;5.07;4.50;;;2.60;99.90;;;;;;4992179;28;20181;-41
2021/12/04 09:04:04;;;;;;;5.73;4.80;;;2.60;99.90;;;;;;4994169;28;20221;-42
2021/12/04 09:06:31;;;;;;;5.53;4.70;;;2.60;99.90;;;;;;4994046;28;20546;-41
2021/12/04 09:08:57;;;;;;;5.40;4.80;;;2.60;99.90;;;;;;4994192;28;20173;-40
2021/12/04 09:11:30;;;;;;;6.20;5.20;;;2.70;99.90;;;;;;4994215;28;20193;-41
2021/12/04 09:13:57;;;;;;;6.33;5.47;;;2.70;99.90;;;;;;4993788;28;20288;-40
2021/12/04 09:16:25;;;;;;;6.43;4.70;;;2.70;99.90;;;;;;4993730;28;20176;-40
2021/12/04 09:18:51;;;;;;;5.80;5.20;;;2.70;99.90;;;;;;4994119;28;20256;-41
2021/12/04 09:21:17;;;;;;;8.57;4.93;;;2.70;99.90;;;;;;4994115;28;20181;-40
2021/12/04 09:23:54;;;;;;;6.87;5.70;;;2.70;99.90;;;;;;4993900;28;20205;-41
2021/12/04 09:26:44;;;;;;;6.27;5.53;;;2.80;99.90;;;;;;4993814;28;20172;-42
2021/12/04 10:03:05;;;;;;;6.13;5.53;;;3.30;99.90;;;;;;4914501;29;20194;-40
2021/12/04 10:34:49;;;;;;;4.30;3.90;;;3.90;99.90;;;;;;4992927;28;20197;-39
2021/12/04 10:37:21;;;;;;;4.97;4.13;;;3.90;99.90;;;;;;4992389;28;20177;-44
2021/12/04 10:39:46;;;;;;;4.10;3.70;;;4.00;99.90;;;;;;4993140;28;20184;-43
2021/12/04 10:42:16;;;;;;;5.93;4.40;;;4.00;99.90;;;;;;4992448;28;20184;-40
2021/12/04 10:44:48;;;;;;;4.43;4.03;;;4.10;99.90;;;;;;4992557;28;20207;-39
2021/12/04 10:47:21;;;;;;;5.20;4.50;;;4.20;99.90;;;;;;4992993;28;20169;-40
2021/12/04 10:55:14;;;;;;;5.80;4.53;;;4.30;99.90;;;;;;4992788;28;20192;-39
2021/12/04 11:00:24;;;;;;;5.57;4.53;;;4.40;99.90;;;;;;4993749;28;20260;-41
2021/12/04 11:03:02;;;;;;;5.60;4.70;;;4.40;99.90;;;;;;4992700;28;20197;-43
2021/12/04 11:22:58;;;;;;;4.57;4.03;;;4.50;99.90;;;;;;5009759;28;20210;-45
2021/12/04 11:28:42;;;;;;;5.03;4.53;;;4.50;99.90;;;;;;5011690;28;20593;-41
2021/12/04 11:36:59;;;;;;;6.13;5.00;;;4.50;99.90;;;;;;5011217;28;20696;-42
2021/12/04 11:39:40;;;;;;;5.70;4.60;;;4.50;99.90;;;;;;5013632;28;20191;-47
2021/12/04 11:47:13;;;;;;;5.63;4.43;;;4.40;99.90;;;;;;5015105;28;20179;-42
2021/12/04 11:49:39;;;;;;;4.90;4.40;;;4.40;99.90;;;;;;5015070;28;20172;-47
2021/12/04 11:52:15;;;;;;;6.67;5.03;;;4.40;99.90;;;;;;5014878;28;20172;-42
2021/12/04 11:54:52;;;;;;;4.87;4.27;;;4.30;99.90;;;;;;5014668;28;20246;-45
2021/12/04 11:57:28;;;;;;;4.40;4.00;;;4.30;99.90;;;;;;5014915;28;20175;-44
2021/12/04 11:59:54;;;;;;;4.53;4.13;;;4.30;99.90;;;;;;5015242;28;20226;-43
2021/12/04 12:02:24;;;;;;;4.80;4.17;;;4.20;99.90;;;;;;5014714;28;20177;-41
2021/12/04 12:04:55;;;;;;;4.93;4.40;;;4.20;99.90;;;;;;5014353;28;20209;-43
2021/12/04 12:07:24;;;;;;;5.43;4.60;;;4.20;99.90;;;;;;5014882;28;20555;-42
2021/12/04 12:10:10;;;;;;;6.10;5.10;;;4.20;99.90;;;;;;5014670;28;20243;-43
2021/12/04 12:12:39;;;;;;;5.03;4.53;;;4.20;99.90;;;;;;5013993;28;20176;-41
2021/12/04 12:15:28;;;;;;;4.93;4.47;;;4.20;99.90;;;;;;5013759;28;20196;-41
2021/12/04 12:17:54;;;;;;;5.30;4.50;;;4.20;99.90;;;;;;5014365;28;20226;-44
2021/12/04 12:20:40;;;;;;;4.30;3.90;;;4.20;99.90;;;;;;5013217;28;20187;-41
2021/12/04 12:23:10;;;;;;;4.83;4.33;;;4.10;99.90;;;;;;5014122;28;20230;-41
2021/12/04 12:26:03;;;;;;;6.37;4.80;;;4.10;99.90;;;;;;5014070;28;20223;-42
2021/12/04 12:37:15;;;;;;;4.87;4.17;;;4.00;99.90;;;;;;4992141;28;20259;-43
2021/12/04 12:39:55;;;;;;;5.43;4.17;;;3.90;99.90;;;;;;4991685;28;20270;-44
2021/12/04 12:42:37;;;;;;;6.07;5.03;;;4.00;99.90;;;;;;4992095;28;20564;-45
2021/12/04 12:45:24;;;;;;;6.30;5.37;;;4.00;99.90;;;;;;4991819;28;20679;-40
2021/12/04 12:47:59;;;;;;;6.77;6.07;;;3.90;99.90;;;;;;4992171;28;20187;-44
2021/12/04 12:50:40;;;;;;;6.73;6.07;;;3.90;99.90;;;;;;4990923;28;20181;-41
2021/12/04 12:53:12;;;;;;;7.13;6.43;;;3.90;99.90;;;;;;4992091;28;20185;-42
2021/12/04 12:55:39;;;;;;;5.47;4.70;;;3.90;99.90;;;;;;4991448;28;20304;-42
2021/12/04 12:58:20;;;;;;;4.87;4.20;;;3.80;99.90;;;;;;4991627;28;20185;-42
2021/12/04 13:12:17;;;;;;;5.83;4.83;;;3.80;99.90;;;;;;5013658;28;20187;-40
2021/12/04 13:14:45;;;;;;;6.10;4.77;;;3.70;99.90;;;;;;5012698;28;20203;-38
2021/12/04 13:17:17;;;;;;;4.87;4.10;;;3.70;99.90;;;;;;5012971;28;20512;-44
2021/12/04 13:19:48;;;;;;;5.73;4.37;;;3.70;99.90;;;;;;5013253;28;20250;-40
2021/12/04 13:22:33;;;;;;;5.30;4.67;;;3.60;99.90;;;;;;5006921;28;20252;-40
2021/12/04 13:25:03;;;;;;;4.73;4.10;;;3.60;99.90;;;;;;5005951;28;20275;-39
2021/12/04 13:29:59;;;;;;;4.40;4.00;;;3.70;99.90;;;;;;5013014;28;20184;-42
2021/12/04 13:32:35;;;;;;;5.13;3.97;;;3.60;99.90;;;;;;5011882;28;20663;-39
2021/12/04 13:35:21;;;;;;;5.10;4.60;;;3.70;99.90;;;;;;5012732;28;20218;-39
2021/12/04 13:37:58;;;;;;;4.07;3.67;;;3.70;99.90;;;;;;5012901;28;20714;-38
2021/12/04 13:40:25;;;;;;;4.50;3.93;;;3.70;99.90;;;;;;5012913;28;20168;-39
2021/12/04 13:42:51;;;;;;;5.03;4.30;;;3.80;99.90;;;;;;5012698;28;20172;-38
2021/12/04 13:45:19;;;;;;;4.67;4.17;;;3.80;99.90;;;;;;5012523;28;20250;-39
2021/12/04 13:47:52;;;;;;;4.20;3.80;;;3.80;99.90;;;;;;5012754;28;20215;-41
2021/12/04 13:50:44;;;;;;;4.50;4.07;;;3.80;99.90;;;;;;5012496;28;20187;-38
2021/12/04 13:53:15;;;;;;;3.87;3.57;;;3.80;99.90;;;;;;5012527;28;20230;-39
2021/12/04 13:55:56;;;;;;;4.43;4.03;;;3.90;99.90;;;;;;5012154;28;20746;-37
2021/12/04 13:58:22;;;;;;;5.07;4.17;;;3.90;99.90;;;;;;5011789;28;20180;-38
2021/12/04 14:00:49;;;;;;;4.70;4.20;;;3.90;99.90;;;;;;5012381;28;20199;-39
2021/12/04 14:03:23;;;;;;;4.70;4.30;;;3.90;99.90;;;;;;5012544;28;20222;-39
2021/12/04 14:05:49;;;;;;;4.43;4.03;;;3.90;99.90;;;;;;5012042;28;20298;-39
2021/12/04 14:08:14;;;;;;;4.20;3.80;;;4.00;99.90;;;;;;5012587;28;20247;-40
2021/12/04 14:10:42;;;;;;;4.50;4.10;;;3.90;99.90;;;;;;5012315;28;20176;-38
2021/12/04 14:13:09;;;;;;;4.37;3.97;;;3.90;99.90;;;;;;5012373;28;20651;-37
2021/12/04 14:15:35;;;;;;;4.83;4.13;;;3.90;99.90;;;;;;5010657;28;20193;-39
2021/12/04 14:18:10;;;;;;;4.37;3.97;;;3.90;99.90;;;;;;5011921;28;20674;-38
2021/12/04 14:20:39;;;;;;;5.23;4.47;;;3.90;99.90;;;;;;5012137;28;20705;-39
2021/12/04 14:23:05;;;;;;;4.73;4.33;;;3.90;99.90;;;;;;5012135;28;20643;-38
2021/12/04 14:25:31;;;;;;;4.13;3.67;;;3.90;99.90;;;;;;5009484;28;20209;-38
2021/12/04 14:27:59;;;;;;;4.00;3.60;;;3.90;99.90;;;;;;5021772;28;20174;-38
2021/12/04 14:30:32;;;;;;;4.27;3.87;;;3.90;99.90;;;;;;5008877;28;20536;-36
2021/12/04 14:33:00;;;;;;;3.87;3.43;;;3.90;99.90;;;;;;5012075;28;20766;-40
2021/12/04 14:35:30;;;;;;;3.90;3.47;;;3.80;99.90;;;;;;5011544;28;20185;-39
2021/12/04 14:38:00;;;;;;;3.90;3.50;;;3.90;99.90;;;;;;5011991;28;20192;-40
2021/12/04 14:40:34;;;;;;;3.67;3.37;;;3.80;99.90;;;;;;5011941;28;20168;-38
2021/12/04 14:43:02;;;;;;;3.97;3.63;;;3.90;99.90;;;;;;5011876;28;20535;-40
2021/12/04 14:45:30;;;;;;;4.40;4.00;;;3.90;99.90;;;;;;5011605;28;20195;-39
2021/12/04 14:48:07;;;;;;;4.20;3.80;;;3.90;99.90;;;;;;5011664;28;20179;-38
2021/12/04 14:50:34;;;;;;;3.70;3.20;;;3.80;99.90;;;;;;5011680;28;20577;-38
2021/12/04 14:53:03;;;;;;;4.03;3.63;;;3.80;99.90;;;;;;5011452;28;20586;-39
2021/12/04 14:55:35;;;;;;;4.00;3.60;;;3.80;99.90;;;;;;5011407;28;20231;-38
2021/12/04 14:58:05;;;;;;;3.70;3.40;;;3.80;99.90;;;;;;5011606;28;20227;-39
2021/12/04 15:00:37;;;;;;;3.50;3.20;;;3.80;99.90;;;;;;5011911;28;20176;-37
2021/12/04 15:03:08;;;;;;;4.70;3.97;;;3.80;99.90;;;;;;5011666;28;20180;-39
2021/12/04 15:05:46;;;;;;;3.67;3.17;;;3.80;99.90;;;;;;5011162;28;20582;-39
2021/12/04 15:08:20;;;;;;;3.60;3.27;;;3.80;99.90;;;;;;5011649;28;20169;-39
2021/12/04 15:11:07;;;;;;;3.80;3.47;;;3.70;99.90;;;;;;5011801;28;20196;-41
2021/12/04 15:13:40;;;;;;;5.40;4.77;;;3.70;99.90;;;;;;5014159;28;20204;-40
2021/12/04 15:16:07;;;;;;;6.70;6.10;;;3.70;99.90;;;;;;4998639;28;20238;-41
2021/12/04 15:18:36;;;;;;;5.43;4.90;;;3.80;99.90;;;;;;5015465;28;20165;-39
2021/12/04 15:21:17;;;;;;;5.40;4.90;;;3.70;99.90;;;;;;5015766;28;20184;-41
2021/12/04 15:23:45;;;;;;;4.80;4.40;;;3.70;99.90;;;;;;5018721;28;20172;-38
2021/12/04 15:26:15;;;;;;;4.53;4.13;;;3.70;99.90;;;;;;5014888;28;20228;-38
2021/12/04 15:28:52;;;;;;;6.40;5.17;;;3.70;99.90;;;;;;5015159;28;20666;-38
2021/12/04 15:31:20;;;;;;;6.43;5.40;;;3.70;99.90;;;;;;5015171;28;20188;-40
2021/12/04 15:33:51;;;;;;;4.50;4.10;;;3.70;99.90;;;;;;5014911;28;20570;-41
2021/12/04 15:36:24;;;;;;;6.00;5.40;;;3.70;99.90;;;;;;5014861;28;20227;-39
2021/12/04 15:38:52;;;;;;;5.03;4.53;;;3.70;99.90;;;;;;5013168;28;20630;-36
2021/12/04 15:44:06;;;;;;;4.87;4.43;;;3.70;99.90;;;;;;5015327;28;20180;-42
2021/12/04 15:46:46;;;;;;;4.20;3.80;;;3.70;99.90;;;;;;5014899;28;20598;-39
2021/12/04 15:54:45;;;;;;;11.10;8.93;;;3.70;99.90;;;;;;5014715;28;20289;-40
2021/12/04 15:57:14;;;;;;;7.10;6.27;;;3.70;99.90;;;;;;5014789;28;20173;-44
2021/12/04 15:59:45;;;;;;;6.47;5.57;;;3.70;99.90;;;;;;5014912;28;20188;-41
2021/12/04 16:02:15;;;;;;;4.83;4.43;;;3.70;99.90;;;;;;5014639;28;20586;-40
2021/12/04 16:04:41;;;;;;;5.20;4.70;;;3.80;99.90;;;;;;5015344;28;20586;-36
2021/12/04 16:07:07;;;;;;;4.90;4.40;;;3.80;99.90;;;;;;5015682;28;20185;-37
2021/12/04 16:09:35;;;;;;;4.67;4.27;;;3.80;99.90;;;;;;5017145;28;20176;-40
2021/12/04 16:12:03;;;;;;;4.77;4.37;;;3.80;99.90;;;;;;5016521;28;20200;-39
2021/12/04 16:14:33;;;;;;;4.50;4.10;;;3.80;99.90;;;;;;5006675;28;20266;-43
2021/12/04 16:17:00;;;;;;;5.87;5.27;;;3.80;99.90;;;;;;4981310;28;20595;-38
2021/12/04 16:19:29;;;;;;;4.70;4.30;;;3.80;99.90;;;;;;5010694;28;20267;-39